This is the latest recevied weather packets stored in our database for station/object EA1IWF-10. If no packets are shown the sender has not sent any weather packets the latest 10 day(s).
| Time | Temp. | Humidity | Pressure | Rain* | Wind** | Luminosity | Snow |
|---|---|---|---|---|---|---|---|
| 1787949179 | 72° F | 51% | 768.4 mmHg | - | - | - | - |
| 1787948278 | 75° F | 51% | 768.5 mmHg | - | - | - | - |
| 1787948253 | 72° F | 50% | 768.4 mmHg | - | - | - | - |
| 1787947352 | 73° F | 50% | 768.4 mmHg | - | - | - | - |
| 1787946451 | 73° F | 49% | 768.2 mmHg | - | - | - | - |
| 1787945550 | 74° F | 47% | 768.2 mmHg | - | - | - | - |
| 1787944650 | 74° F | 46% | 768.1 mmHg | - | - | - | - |
| 1787943749 | 75° F | 45% | 768.1 mmHg | - | - | - | - |
| 1787942848 | 76° F | 43% | 768.1 mmHg | - | - | - | - |
| 1787941947 | 76° F | 43% | 768.1 mmHg | - | - | - | - |
| 1787941046 | 77° F | 42% | 768.1 mmHg | - | - | - | - |
| 1787940146 | 78° F | 40% | 768.1 mmHg | - | - | - | - |
| 1787939245 | 80° F | 38% | 768.1 mmHg | - | - | - | - |
| 1787938344 | 79° F | 38% | 768.1 mmHg | - | - | - | - |
| 1787937443 | 79° F | 38% | 768.1 mmHg | - | - | - | - |
| 1787936542 | 81° F | 36% | 768.1 mmHg | - | - | - | - |
| 1787935641 | 82° F | 37% | 768.1 mmHg | - | - | - | - |
| 1787934741 | 92° F | 29% | 768.1 mmHg | - | - | - | - |
| 1787933840 | 86° F | 33% | 768.1 mmHg | - | - | - | - |
| 1787932939 | 89° F | 31% | 768 mmHg | - | - | - | - |
| 1787932038 | 87° F | 32% | 768 mmHg | - | - | - | - |
| 1787931137 | 83° F | 36% | 767.9 mmHg | - | - | - | - |
| 1787930236 | 84° F | 36% | 767.8 mmHg | - | - | - | - |
| 1787929336 | 90° F | 33% | 767.9 mmHg | - | - | - | - |
* Rain since midnight (hover to see other rain measurements)
** Current wind speed in m/s (hover to see current wind gust speed)